createdAt,value
2023-03-04T00:01:05.112Z,81.9
2023-03-04T00:06:05.475Z,83.6
2023-03-04T00:11:05.452Z,102.6
2023-03-04T00:16:04.785Z,108.5
2023-03-04T00:21:04.686Z,76.2
2023-03-04T00:26:04.837Z,59.4
2023-03-04T00:31:04.698Z,56.9
2023-03-04T00:36:04.702Z,66.9
2023-03-04T00:41:04.861Z,71.0
2023-03-04T00:46:04.770Z,69.3
2023-03-04T00:51:04.630Z,67.4
2023-03-04T00:56:05.010Z,69.6
2023-03-04T01:01:04.657Z,63.1
2023-03-04T01:06:04.688Z,98.3
2023-03-04T01:11:04.674Z,71.6
2023-03-04T01:16:04.791Z,76.4
2023-03-04T01:21:04.805Z,76.7
2023-03-04T01:26:04.628Z,73.2
2023-03-04T01:31:04.763Z,74.3
2023-03-04T01:36:15.068Z,67.1
2023-03-04T01:41:04.586Z,56.0
2023-03-04T01:46:04.629Z,65.8
2023-03-04T01:51:04.584Z,63.2
2023-03-04T01:56:04.516Z,64.7
2023-03-04T02:01:04.696Z,90.5
2023-03-04T02:06:04.565Z,60.1
2023-03-04T02:11:04.499Z,56.7
2023-03-04T02:16:04.655Z,65.0
2023-03-04T02:21:04.759Z,84.1
2023-03-04T02:26:04.993Z,63.9
2023-03-04T02:31:05.092Z,98.5
2023-03-04T02:36:04.601Z,67.8
2023-03-04T02:41:05.032Z,73.9
2023-03-04T02:46:10.095Z,91.6
2023-03-04T02:51:05.172Z,155.4
2023-03-04T02:56:04.408Z,112.4
2023-03-04T03:01:04.593Z,75.6
2023-03-04T03:06:04.675Z,72.2
2023-03-04T03:11:04.539Z,70.3
2023-03-04T03:16:04.622Z,96.1
2023-03-04T03:21:04.461Z,84.7
2023-03-04T03:26:05.525Z,97.0
2023-03-04T03:31:04.473Z,160.4
2023-03-04T03:36:04.484Z,93.7
2023-03-04T03:41:04.345Z,65.2
2023-03-04T03:46:04.580Z,44.2
2023-03-04T03:51:04.410Z,39.6
2023-03-04T03:56:04.435Z,49.6
2023-03-04T04:01:04.507Z,44.5
2023-03-04T04:06:04.635Z,46.1
2023-03-04T04:11:04.319Z,67.2
2023-03-04T04:16:04.377Z,81.9
2023-03-04T04:21:04.376Z,63.5
2023-03-04T04:26:04.289Z,72.6
2023-03-04T04:31:04.599Z,59.5
2023-03-04T04:36:04.983Z,77.9
2023-03-04T04:41:04.934Z,307.4
2023-03-04T04:46:05.037Z,661.5
2023-03-04T04:51:05.098Z,189.4
2023-03-04T04:56:04.283Z,115.3
2023-03-04T05:01:04.483Z,86.4
2023-03-04T05:06:05.125Z,78.2
2023-03-04T05:11:04.886Z,328.5
2023-03-04T05:16:04.257Z,126.7
2023-03-04T05:21:04.172Z,69.6
2023-03-04T05:26:04.363Z,72.1
2023-03-04T05:31:04.159Z,60.4
2023-03-04T05:36:04.864Z,85.4
2023-03-04T05:41:08.906Z,132.1
2023-03-04T05:46:04.243Z,60.2
2023-03-04T05:51:04.114Z,51.9
2023-03-04T05:56:04.130Z,43.3
2023-03-04T06:01:04.332Z,90.2
2023-03-04T06:06:04.068Z,46.2
2023-03-04T06:11:04.136Z,53.8
2023-03-04T06:16:04.106Z,41.8
2023-03-04T06:21:04.101Z,43.6
2023-03-04T06:26:04.183Z,41.7
2023-03-04T06:31:04.858Z,44.9
2023-03-04T06:36:04.827Z,136.9
2023-03-04T06:41:04.026Z,547.3
2023-03-04T06:46:04.730Z,547.3
2023-03-04T06:51:03.989Z,202.7
2023-03-04T06:56:04.097Z,82.6
2023-03-04T07:01:04.933Z,95.6
2023-03-04T07:06:04.995Z,170.2
2023-03-04T07:11:04.663Z,275.3
2023-03-04T07:16:03.984Z,101.3
2023-03-04T07:21:04.032Z,90.7
2023-03-04T07:26:03.940Z,59.8
2023-03-04T07:31:04.136Z,78.6
2023-03-04T07:36:03.919Z,82.3
2023-03-04T07:41:03.952Z,49.3
2023-03-04T07:46:04.120Z,42.8
2023-03-04T07:51:04.472Z,44.2
2023-03-04T07:56:03.880Z,54.3
2023-03-04T08:01:03.900Z,75.2
2023-03-04T08:06:03.883Z,53.1
2023-03-04T08:11:03.845Z,75.6
2023-03-04T08:16:04.053Z,80.6
2023-03-04T08:21:03.884Z,43.4
2023-03-04T08:26:03.819Z,43.9
2023-03-04T08:31:04.028Z,45.9
2023-03-04T08:36:03.846Z,52.9
2023-03-04T08:41:03.780Z,42.9
2023-03-04T08:46:03.985Z,43.9
2023-03-04T08:51:03.882Z,51.8
2023-03-04T08:56:04.965Z,56.9
2023-03-04T09:01:03.935Z,89.6
2023-03-04T09:06:03.878Z,57.5
2023-03-04T09:11:03.738Z,61.9
2023-03-04T09:16:04.593Z,82.1
2023-03-04T09:26:04.501Z,175.6
2023-03-04T09:31:04.510Z,188.4
2023-03-04T09:36:04.337Z,122.3
2023-03-04T09:41:04.441Z,111.0
2023-03-04T09:46:04.450Z,290.8
2023-03-04T09:51:04.525Z,237.8
2023-03-04T09:56:03.751Z,148.8
2023-03-04T10:01:05.370Z,74.7
2023-03-04T10:06:03.906Z,62.8
2023-03-04T10:11:03.620Z,75.1
2023-03-04T10:16:03.808Z,56.3
2023-03-04T10:21:04.077Z,52.8
2023-03-04T10:26:03.629Z,79.4
2023-03-04T10:31:03.607Z,72.4
2023-03-04T10:36:03.775Z,55.6
2023-03-04T10:41:03.655Z,56.6
2023-03-04T10:46:03.861Z,57.3
2023-03-04T10:51:03.596Z,46.4
2023-03-04T10:56:03.686Z,45.6
2023-03-04T11:01:04.008Z,45.6
2023-03-04T11:06:03.528Z,62.1
2023-03-04T11:11:03.535Z,56.6
2023-03-04T11:16:03.678Z,55.6
2023-03-04T11:21:03.511Z,53.2
2023-03-04T11:26:03.672Z,46.2
2023-03-04T11:31:03.631Z,70.9
2023-03-04T11:36:03.448Z,68.9
2023-03-04T11:41:03.560Z,89.2
2023-03-04T11:46:04.946Z,52.1
2023-03-04T11:51:03.474Z,52.0
2023-03-04T11:56:14.327Z,55.0
2023-03-04T12:01:03.430Z,56.3
2023-03-04T12:06:03.575Z,54.9
2023-03-04T12:11:03.781Z,55.0
2023-03-04T12:16:03.428Z,58.4
2023-03-04T12:21:03.560Z,69.0
2023-03-04T12:26:03.418Z,52.4
2023-03-04T12:31:03.413Z,52.1
2023-03-04T12:36:03.606Z,57.6
2023-03-04T12:41:03.507Z,74.0
2023-03-04T12:46:03.471Z,43.2
2023-03-04T12:51:03.801Z,62.2
2023-03-04T12:56:03.403Z,51.5
2023-03-04T13:01:03.337Z,56.3
2023-03-04T13:06:03.705Z,66.0
2023-03-04T13:11:03.420Z,57.7
2023-03-04T13:16:03.404Z,64.8
2023-03-04T13:21:03.506Z,62.9
2023-03-04T13:26:04.071Z,89.8
2023-03-04T13:31:04.302Z,116.5
2023-03-04T13:36:04.218Z,101.0
2023-03-04T13:41:04.238Z,270.3
2023-03-04T13:46:03.371Z,124.6
2023-03-04T13:51:04.324Z,87.6
2023-03-04T13:56:03.266Z,104.8
2023-03-04T14:01:03.344Z,77.9
2023-03-04T14:06:03.395Z,65.9
2023-03-04T14:11:04.994Z,61.8
2023-03-04T14:16:03.641Z,128.9
2023-03-04T14:21:04.291Z,76.9
2023-03-04T14:26:03.967Z,102.7
2023-03-04T14:31:04.061Z,237.0
2023-03-04T14:36:03.164Z,110.1
2023-03-04T14:41:26.282Z,73.6
2023-03-04T14:46:03.406Z,41.5
2023-03-04T14:51:03.187Z,65.7
2023-03-04T14:56:03.085Z,83.6
2023-03-04T15:01:03.379Z,69.2
2023-03-04T15:06:03.147Z,49.0
2023-03-04T15:11:03.140Z,35.5
2023-03-04T15:16:03.226Z,35.0
2023-03-04T15:21:03.092Z,38.6
2023-03-04T15:26:03.060Z,44.9
2023-03-04T15:31:03.353Z,30.8
2023-03-04T15:36:03.063Z,35.7
2023-03-04T15:41:03.105Z,33.6
2023-03-04T15:46:03.360Z,41.4
2023-03-04T15:51:02.972Z,34.3
2023-03-04T15:56:03.014Z,57.5
2023-03-04T16:01:03.325Z,44.3
2023-03-04T16:06:02.997Z,60.6
2023-03-04T16:11:03.754Z,40.0
2023-03-04T16:16:03.215Z,132.0
2023-03-04T16:21:04.914Z,66.4
2023-03-04T16:26:03.107Z,49.6
2023-03-04T16:31:03.226Z,55.6
2023-03-04T16:36:03.019Z,96.3
2023-03-04T16:41:03.652Z,87.2
2023-03-04T16:46:02.980Z,115.4
2023-03-04T16:51:02.870Z,78.3
2023-03-04T16:56:03.039Z,64.6
2023-03-04T17:01:02.871Z,46.2
2023-03-04T17:06:02.886Z,34.6
2023-03-04T17:11:03.007Z,41.1
2023-03-04T17:16:02.930Z,44.0
2023-03-04T17:21:02.866Z,48.2
2023-03-04T17:26:03.035Z,53.8
2023-03-04T17:31:03.163Z,53.4
2023-03-04T17:36:02.790Z,53.3
2023-03-04T17:41:03.221Z,49.9
2023-03-04T17:46:03.547Z,74.2
2023-03-04T17:51:03.655Z,114.9
2023-03-04T17:56:03.526Z,394.5
2023-03-04T18:01:04.354Z,435.2
2023-03-04T18:06:03.778Z,463.7
2023-03-04T18:11:03.625Z,314.3
2023-03-04T18:16:02.876Z,182.7
2023-03-04T18:21:02.866Z,91.3
2023-03-04T18:26:02.793Z,84.2
2023-03-04T18:31:03.593Z,90.1
2023-03-04T18:36:03.470Z,229.4
2023-03-04T18:41:02.710Z,143.3
2023-03-04T18:46:02.866Z,57.7
2023-03-04T18:51:02.842Z,57.6
2023-03-04T18:56:02.716Z,88.6
2023-03-04T19:01:03.404Z,83.2
2023-03-04T19:06:03.513Z,118.4
2023-03-04T19:11:02.898Z,110.4
2023-03-04T19:16:02.856Z,64.3
2023-03-04T19:21:05.260Z,81.8
2023-03-04T19:26:04.421Z,136.4
2023-03-04T19:31:02.636Z,70.3
2023-03-04T19:36:02.729Z,50.7
2023-03-04T19:41:03.283Z,62.9
2023-03-04T19:46:02.625Z,38.6
2023-03-04T19:51:04.552Z,79.8
2023-03-04T19:56:03.073Z,80.8
2023-03-04T20:01:02.571Z,52.2
2023-03-04T20:06:02.549Z,49.3
2023-03-04T20:11:02.534Z,48.3
2023-03-04T20:16:02.588Z,63.7
2023-03-04T20:21:03.399Z,66.9
2023-03-04T20:26:02.506Z,137.7
2023-03-04T20:31:02.517Z,52.2
2023-03-04T20:36:02.763Z,19.6
2023-03-04T20:41:02.578Z,9.6
2023-03-04T20:46:02.603Z,8.9
2023-03-04T20:51:02.435Z,7.2
2023-03-04T20:56:02.475Z,6.7
2023-03-04T21:01:02.438Z,6.9
2023-03-04T21:06:02.596Z,7.0
2023-03-04T21:11:02.431Z,7.9
2023-03-04T21:16:03.189Z,12.1
2023-03-04T21:21:02.442Z,230.3
2023-03-04T21:26:02.793Z,69.5
2023-03-04T21:31:03.334Z,61.3
2023-03-04T21:36:02.492Z,107.8
2023-03-04T21:41:02.382Z,84.6
2023-03-04T21:46:03.629Z,89.4
2023-03-04T21:51:02.386Z,165.2
2023-03-04T21:56:02.394Z,95.5
2023-03-04T22:01:02.435Z,74.1
2023-03-04T22:06:03.292Z,47.6
2023-03-04T22:11:03.674Z,112.5
2023-03-04T22:16:02.474Z,53.3
2023-03-04T22:21:04.406Z,21.7
2023-03-04T22:26:02.331Z,22.1
2023-03-04T22:31:02.364Z,20.6
2023-03-04T22:36:02.464Z,39.1
2023-03-04T22:41:02.375Z,31.7
2023-03-04T22:46:02.383Z,22.9
2023-03-04T22:51:02.248Z,25.1
2023-03-04T22:56:02.288Z,20.6
2023-03-04T23:01:02.337Z,17.3
2023-03-04T23:06:02.424Z,31.4
2023-03-04T23:11:02.212Z,59.5
2023-03-04T23:16:02.258Z,46.2
2023-03-04T23:21:02.995Z,32.3
2023-03-04T23:26:02.196Z,113.1
2023-03-04T23:31:04.268Z,21.7
2023-03-04T23:36:02.407Z,14.5
2023-03-04T23:41:03.708Z,11.8
2023-03-04T23:46:02.280Z,10.9
2023-03-04T23:51:02.182Z,7.4
2023-03-04T23:56:02.180Z,5.5
